sensor_id;sensor_type;location;lat;lon;timestamp;P1;durP1;ratioP1;P2;durP2;ratioP2
69417;SDS011;56610;48.872;2.400;2022-12-15T00:00:59;21.45;;;16.02;;
69417;SDS011;56610;48.872;2.400;2022-12-15T00:03:43;20.38;;;15.48;;
69417;SDS011;56610;48.872;2.400;2022-12-15T00:06:28;21.70;;;15.45;;
69417;SDS011;56610;48.872;2.400;2022-12-15T00:09:12;21.20;;;16.98;;
69417;SDS011;56610;48.872;2.400;2022-12-15T00:11:56;18.38;;;16.10;;
69417;SDS011;56610;48.872;2.400;2022-12-15T00:14:41;20.27;;;15.45;;
69417;SDS011;56610;48.872;2.400;2022-12-15T00:17:25;19.83;;;16.08;;
69417;SDS011;56610;48.872;2.400;2022-12-15T00:20:09;19.85;;;16.17;;
69417;SDS011;56610;48.872;2.400;2022-12-15T00:22:53;21.27;;;16.77;;
69417;SDS011;56610;48.872;2.400;2022-12-15T00:25:37;19.98;;;15.38;;
69417;SDS011;56610;48.872;2.400;2022-12-15T00:28:21;19.35;;;15.18;;
69417;SDS011;56610;48.872;2.400;2022-12-15T00:31:05;20.25;;;16.20;;
69417;SDS011;56610;48.872;2.400;2022-12-15T00:33:49;20.77;;;15.70;;
69417;SDS011;56610;48.872;2.400;2022-12-15T00:36:33;25.02;;;17.08;;
69417;SDS011;56610;48.872;2.400;2022-12-15T00:39:17;20.10;;;15.18;;
69417;SDS011;56610;48.872;2.400;2022-12-15T00:41:43;18.90;;;15.02;;
69417;SDS011;56610;48.872;2.400;2022-12-15T00:44:09;21.33;;;17.27;;
69417;SDS011;56610;48.872;2.400;2022-12-15T00:46:34;18.60;;;15.90;;
69417;SDS011;56610;48.872;2.400;2022-12-15T00:49:18;21.70;;;15.95;;
69417;SDS011;56610;48.872;2.400;2022-12-15T00:52:10;20.80;;;16.60;;
69417;SDS011;56610;48.872;2.400;2022-12-15T00:54:55;21.02;;;17.08;;
69417;SDS011;56610;48.872;2.400;2022-12-15T00:57:39;19.92;;;15.85;;
69417;SDS011;56610;48.872;2.400;2022-12-15T01:00:24;24.40;;;16.73;;
69417;SDS011;56610;48.872;2.400;2022-12-15T01:03:10;20.98;;;17.02;;
69417;SDS011;56610;48.872;2.400;2022-12-15T01:05:54;20.10;;;15.57;;
69417;SDS011;56610;48.872;2.400;2022-12-15T01:08:38;23.05;;;16.77;;
69417;SDS011;56610;48.872;2.400;2022-12-15T01:11:22;19.65;;;16.33;;
69417;SDS011;56610;48.872;2.400;2022-12-15T01:14:06;18.27;;;15.43;;
69417;SDS011;56610;48.872;2.400;2022-12-15T01:16:50;19.75;;;15.85;;
69417;SDS011;56610;48.872;2.400;2022-12-15T01:19:34;19.90;;;16.23;;
69417;SDS011;56610;48.872;2.400;2022-12-15T01:22:18;21.33;;;16.83;;
69417;SDS011;56610;48.872;2.400;2022-12-15T01:24:44;20.30;;;16.27;;
69417;SDS011;56610;48.872;2.400;2022-12-15T01:27:09;20.40;;;16.15;;
69417;SDS011;56610;48.872;2.400;2022-12-15T01:29:35;19.80;;;15.40;;
69417;SDS011;56610;48.872;2.400;2022-12-15T01:32:01;22.67;;;17.77;;
69417;SDS011;56610;48.872;2.400;2022-12-15T01:34:26;22.13;;;17.20;;
69417;SDS011;56610;48.872;2.400;2022-12-15T01:36:52;20.52;;;16.42;;
69417;SDS011;56610;48.872;2.400;2022-12-15T01:39:17;21.63;;;17.17;;
69417;SDS011;56610;48.872;2.400;2022-12-15T01:41:43;21.67;;;16.77;;
69417;SDS011;56610;48.872;2.400;2022-12-15T01:44:22;21.30;;;16.77;;
69417;SDS011;56610;48.872;2.400;2022-12-15T01:46:49;24.40;;;17.63;;
69417;SDS011;56610;48.872;2.400;2022-12-15T01:49:27;20.85;;;17.15;;
69417;SDS011;56610;48.872;2.400;2022-12-15T01:51:56;22.02;;;17.10;;
69417;SDS011;56610;48.872;2.400;2022-12-15T01:56:54;22.33;;;17.02;;
69417;SDS011;56610;48.872;2.400;2022-12-15T01:59:34;23.90;;;17.98;;
69417;SDS011;56610;48.872;2.400;2022-12-15T02:02:02;20.05;;;16.55;;
69417;SDS011;56610;48.872;2.400;2022-12-15T02:04:28;22.05;;;17.60;;
69417;SDS011;56610;48.872;2.400;2022-12-15T02:06:56;24.83;;;17.50;;
69417;SDS011;56610;48.872;2.400;2022-12-15T02:09:21;22.20;;;17.23;;
69417;SDS011;56610;48.872;2.400;2022-12-15T02:23:20;21.10;;;16.83;;
69417;SDS011;56610;48.872;2.400;2022-12-15T02:32:12;22.52;;;17.02;;
69417;SDS011;56610;48.872;2.400;2022-12-15T02:39:58;21.38;;;16.25;;
69417;SDS011;56610;48.872;2.400;2022-12-15T02:42:24;21.50;;;16.92;;
69417;SDS011;56610;48.872;2.400;2022-12-15T02:44:53;19.13;;;15.68;;
69417;SDS011;56610;48.872;2.400;2022-12-15T02:50:23;21.63;;;16.77;;
69417;SDS011;56610;48.872;2.400;2022-12-15T02:52:58;19.42;;;15.38;;
69417;SDS011;56610;48.872;2.400;2022-12-15T02:55:38;19.35;;;16.05;;
69417;SDS011;56610;48.872;2.400;2022-12-15T02:58:36;19.20;;;14.93;;
69417;SDS011;56610;48.872;2.400;2022-12-15T03:01:15;21.63;;;16.95;;
69417;SDS011;56610;48.872;2.400;2022-12-15T03:03:49;23.13;;;17.70;;
69417;SDS011;56610;48.872;2.400;2022-12-15T03:06:15;25.92;;;17.83;;
69417;SDS011;56610;48.872;2.400;2022-12-15T03:08:42;24.10;;;17.90;;
69417;SDS011;56610;48.872;2.400;2022-12-15T03:11:07;21.17;;;17.85;;
69417;SDS011;56610;48.872;2.400;2022-12-15T03:13:33;20.73;;;17.45;;
69417;SDS011;56610;48.872;2.400;2022-12-15T03:15:59;21.88;;;17.00;;
69417;SDS011;56610;48.872;2.400;2022-12-15T03:18:24;21.17;;;16.45;;
69417;SDS011;56610;48.872;2.400;2022-12-15T03:20:51;24.70;;;18.05;;
69417;SDS011;56610;48.872;2.400;2022-12-15T03:23:17;23.52;;;17.75;;
69417;SDS011;56610;48.872;2.400;2022-12-15T03:25:44;21.15;;;17.50;;
69417;SDS011;56610;48.872;2.400;2022-12-15T03:28:10;23.05;;;18.83;;
69417;SDS011;56610;48.872;2.400;2022-12-15T03:30:36;22.45;;;16.95;;
69417;SDS011;56610;48.872;2.400;2022-12-15T03:33:02;24.13;;;16.90;;
69417;SDS011;56610;48.872;2.400;2022-12-15T03:35:28;22.08;;;17.08;;
69417;SDS011;56610;48.872;2.400;2022-12-15T03:37:54;23.60;;;17.23;;
69417;SDS011;56610;48.872;2.400;2022-12-15T03:40:20;24.08;;;18.00;;
69417;SDS011;56610;48.872;2.400;2022-12-15T03:42:45;23.40;;;17.52;;
69417;SDS011;56610;48.872;2.400;2022-12-15T03:45:18;23.38;;;18.02;;
69417;SDS011;56610;48.872;2.400;2022-12-15T03:47:45;22.13;;;17.83;;
69417;SDS011;56610;48.872;2.400;2022-12-15T03:50:12;21.63;;;18.00;;
69417;SDS011;56610;48.872;2.400;2022-12-15T03:52:40;21.85;;;18.35;;
69417;SDS011;56610;48.872;2.400;2022-12-15T03:55:06;23.65;;;18.30;;
69417;SDS011;56610;48.872;2.400;2022-12-15T03:57:32;24.75;;;19.00;;
69417;SDS011;56610;48.872;2.400;2022-12-15T03:59:58;23.55;;;19.13;;
69417;SDS011;56610;48.872;2.400;2022-12-15T04:02:24;23.60;;;19.08;;
69417;SDS011;56610;48.872;2.400;2022-12-15T04:04:50;23.33;;;18.60;;
69417;SDS011;56610;48.872;2.400;2022-12-15T04:07:15;23.80;;;18.90;;
69417;SDS011;56610;48.872;2.400;2022-12-15T04:09:41;26.98;;;19.83;;
69417;SDS011;56610;48.872;2.400;2022-12-15T04:12:06;22.42;;;17.65;;
69417;SDS011;56610;48.872;2.400;2022-12-15T04:14:37;25.00;;;17.90;;
69417;SDS011;56610;48.872;2.400;2022-12-15T04:17:09;24.48;;;17.00;;
69417;SDS011;56610;48.872;2.400;2022-12-15T04:19:36;24.65;;;19.05;;
69417;SDS011;56610;48.872;2.400;2022-12-15T04:22:20;25.95;;;19.05;;
69417;SDS011;56610;48.872;2.400;2022-12-15T04:24:46;25.75;;;18.95;;
69417;SDS011;56610;48.872;2.400;2022-12-15T04:27:30;26.58;;;19.63;;
69417;SDS011;56610;48.872;2.400;2022-12-15T04:30:34;22.33;;;17.80;;
69417;SDS011;56610;48.872;2.400;2022-12-15T04:33:19;25.02;;;18.40;;
69417;SDS011;56610;48.872;2.400;2022-12-15T04:36:05;23.92;;;18.52;;
69417;SDS011;56610;48.872;2.400;2022-12-15T04:38:51;29.23;;;18.77;;
69417;SDS011;56610;48.872;2.400;2022-12-15T04:41:35;25.90;;;19.23;;
69417;SDS011;56610;48.872;2.400;2022-12-15T04:44:21;24.13;;;18.15;;
69417;SDS011;56610;48.872;2.400;2022-12-15T04:47:05;23.98;;;18.67;;
69417;SDS011;56610;48.872;2.400;2022-12-15T04:49:49;23.17;;;18.10;;
69417;SDS011;56610;48.872;2.400;2022-12-15T04:52:33;22.10;;;18.00;;
69417;SDS011;56610;48.872;2.400;2022-12-15T04:55:17;22.95;;;19.10;;
69417;SDS011;56610;48.872;2.400;2022-12-15T04:58:06;23.05;;;17.00;;
69417;SDS011;56610;48.872;2.400;2022-12-15T05:00:51;23.48;;;17.20;;
69417;SDS011;56610;48.872;2.400;2022-12-15T05:03:36;19.80;;;15.57;;
69417;SDS011;56610;48.872;2.400;2022-12-15T05:06:20;26.25;;;17.80;;
69417;SDS011;56610;48.872;2.400;2022-12-15T05:09:05;21.90;;;17.40;;
69417;SDS011;56610;48.872;2.400;2022-12-15T05:11:49;25.33;;;19.25;;
69417;SDS011;56610;48.872;2.400;2022-12-15T05:14:33;23.83;;;19.48;;
69417;SDS011;56610;48.872;2.400;2022-12-15T05:17:18;25.83;;;18.98;;
69417;SDS011;56610;48.872;2.400;2022-12-15T05:20:02;24.13;;;19.17;;
69417;SDS011;56610;48.872;2.400;2022-12-15T05:22:51;22.27;;;18.25;;
69417;SDS011;56610;48.872;2.400;2022-12-15T05:25:39;24.05;;;18.02;;
69417;SDS011;56610;48.872;2.400;2022-12-15T05:28:23;23.67;;;18.13;;
69417;SDS011;56610;48.872;2.400;2022-12-15T05:31:08;27.02;;;17.92;;
69417;SDS011;56610;48.872;2.400;2022-12-15T05:33:53;22.83;;;17.17;;
69417;SDS011;56610;48.872;2.400;2022-12-15T05:36:19;26.38;;;20.23;;
69417;SDS011;56610;48.872;2.400;2022-12-15T05:38:49;22.52;;;18.23;;
69417;SDS011;56610;48.872;2.400;2022-12-15T05:41:16;23.10;;;17.83;;
69417;SDS011;56610;48.872;2.400;2022-12-15T05:43:42;22.20;;;16.73;;
69417;SDS011;56610;48.872;2.400;2022-12-15T05:46:08;25.95;;;19.05;;
69417;SDS011;56610;48.872;2.400;2022-12-15T05:48:34;23.05;;;17.83;;
69417;SDS011;56610;48.872;2.400;2022-12-15T05:51:03;21.48;;;16.45;;
69417;SDS011;56610;48.872;2.400;2022-12-15T05:53:30;22.65;;;18.33;;
69417;SDS011;56610;48.872;2.400;2022-12-15T05:56:09;26.08;;;19.60;;
69417;SDS011;56610;48.872;2.400;2022-12-15T05:58:36;25.48;;;18.17;;
69417;SDS011;56610;48.872;2.400;2022-12-15T06:01:09;23.27;;;18.77;;
69417;SDS011;56610;48.872;2.400;2022-12-15T06:03:36;26.88;;;18.88;;
69417;SDS011;56610;48.872;2.400;2022-12-15T06:06:03;24.77;;;18.88;;
69417;SDS011;56610;48.872;2.400;2022-12-15T06:08:30;21.85;;;18.20;;
69417;SDS011;56610;48.872;2.400;2022-12-15T06:10:58;24.75;;;18.58;;
69417;SDS011;56610;48.872;2.400;2022-12-15T06:13:24;25.60;;;19.73;;
69417;SDS011;56610;48.872;2.400;2022-12-15T06:15:55;24.33;;;19.20;;
69417;SDS011;56610;48.872;2.400;2022-12-15T06:18:29;25.85;;;19.95;;
69417;SDS011;56610;48.872;2.400;2022-12-15T06:20:57;26.55;;;19.58;;
69417;SDS011;56610;48.872;2.400;2022-12-15T06:23:31;22.65;;;16.95;;
69417;SDS011;56610;48.872;2.400;2022-12-15T06:25:57;26.27;;;18.00;;
69417;SDS011;56610;48.872;2.400;2022-12-15T06:28:23;27.58;;;19.52;;
69417;SDS011;56610;48.872;2.400;2022-12-15T06:30:50;27.33;;;20.13;;
69417;SDS011;56610;48.872;2.400;2022-12-15T06:33:20;28.17;;;19.48;;
69417;SDS011;56610;48.872;2.400;2022-12-15T06:35:47;21.35;;;16.80;;
69417;SDS011;56610;48.872;2.400;2022-12-15T06:38:13;24.92;;;17.92;;
69417;SDS011;56610;48.872;2.400;2022-12-15T06:43:26;21.75;;;17.77;;
69417;SDS011;56610;48.872;2.400;2022-12-15T06:45:52;22.63;;;17.15;;
69417;SDS011;56610;48.872;2.400;2022-12-15T06:48:18;22.90;;;17.73;;
69417;SDS011;56610;48.872;2.400;2022-12-15T06:50:45;23.77;;;18.05;;
69417;SDS011;56610;48.872;2.400;2022-12-15T06:53:11;24.43;;;19.07;;
69417;SDS011;56610;48.872;2.400;2022-12-15T06:55:38;23.88;;;18.10;;
69417;SDS011;56610;48.872;2.400;2022-12-15T06:58:05;23.33;;;19.27;;
69417;SDS011;56610;48.872;2.400;2022-12-15T07:00:32;22.52;;;17.80;;
69417;SDS011;56610;48.872;2.400;2022-12-15T07:03:01;23.95;;;18.90;;
69417;SDS011;56610;48.872;2.400;2022-12-15T07:05:27;24.47;;;17.83;;
69417;SDS011;56610;48.872;2.400;2022-12-15T07:07:54;24.23;;;18.10;;
69417;SDS011;56610;48.872;2.400;2022-12-15T07:10:19;26.10;;;18.15;;
69417;SDS011;56610;48.872;2.400;2022-12-15T07:12:45;24.42;;;17.77;;
69417;SDS011;56610;48.872;2.400;2022-12-15T07:15:10;23.17;;;18.08;;
69417;SDS011;56610;48.872;2.400;2022-12-15T07:17:37;24.58;;;18.10;;
69417;SDS011;56610;48.872;2.400;2022-12-15T07:20:03;28.15;;;19.90;;
69417;SDS011;56610;48.872;2.400;2022-12-15T07:22:29;26.75;;;18.52;;
69417;SDS011;56610;48.872;2.400;2022-12-15T07:24:55;25.58;;;18.35;;
69417;SDS011;56610;48.872;2.400;2022-12-15T07:27:21;22.55;;;18.63;;
69417;SDS011;56610;48.872;2.400;2022-12-15T07:29:46;24.30;;;19.13;;
69417;SDS011;56610;48.872;2.400;2022-12-15T07:32:12;23.00;;;18.45;;
69417;SDS011;56610;48.872;2.400;2022-12-15T07:34:39;24.58;;;19.02;;
69417;SDS011;56610;48.872;2.400;2022-12-15T07:37:05;25.75;;;18.23;;
69417;SDS011;56610;48.872;2.400;2022-12-15T07:39:31;26.13;;;18.52;;
69417;SDS011;56610;48.872;2.400;2022-12-15T07:41:57;24.45;;;18.02;;
69417;SDS011;56610;48.872;2.400;2022-12-15T07:44:22;22.95;;;19.08;;
69417;SDS011;56610;48.872;2.400;2022-12-15T07:46:48;24.55;;;18.52;;
69417;SDS011;56610;48.872;2.400;2022-12-15T07:49:14;22.17;;;16.80;;
69417;SDS011;56610;48.872;2.400;2022-12-15T07:51:41;23.67;;;18.63;;
69417;SDS011;56610;48.872;2.400;2022-12-15T07:54:11;22.48;;;17.20;;
69417;SDS011;56610;48.872;2.400;2022-12-15T07:56:38;25.52;;;18.75;;
69417;SDS011;56610;48.872;2.400;2022-12-15T07:59:04;25.23;;;19.13;;
69417;SDS011;56610;48.872;2.400;2022-12-15T08:01:30;24.75;;;18.75;;
69417;SDS011;56610;48.872;2.400;2022-12-15T08:03:56;31.05;;;19.58;;
69417;SDS011;56610;48.872;2.400;2022-12-15T08:06:22;23.25;;;19.25;;
69417;SDS011;56610;48.872;2.400;2022-12-15T08:08:47;27.05;;;20.10;;
69417;SDS011;56610;48.872;2.400;2022-12-15T08:11:14;25.65;;;18.67;;
69417;SDS011;56610;48.872;2.400;2022-12-15T08:13:40;24.20;;;19.23;;
69417;SDS011;56610;48.872;2.400;2022-12-15T08:16:07;31.17;;;19.60;;
69417;SDS011;56610;48.872;2.400;2022-12-15T08:18:34;24.83;;;20.10;;
69417;SDS011;56610;48.872;2.400;2022-12-15T08:21:03;24.73;;;19.00;;
69417;SDS011;56610;48.872;2.400;2022-12-15T08:23:33;26.15;;;18.30;;
69417;SDS011;56610;48.872;2.400;2022-12-15T08:26:03;23.65;;;18.00;;
69417;SDS011;56610;48.872;2.400;2022-12-15T08:28:32;26.15;;;17.95;;
69417;SDS011;56610;48.872;2.400;2022-12-15T08:31:02;26.98;;;19.48;;
69417;SDS011;56610;48.872;2.400;2022-12-15T08:33:32;22.92;;;19.08;;
69417;SDS011;56610;48.872;2.400;2022-12-15T08:35:59;25.05;;;18.63;;
69417;SDS011;56610;48.872;2.400;2022-12-15T08:38:27;26.65;;;19.48;;
69417;SDS011;56610;48.872;2.400;2022-12-15T08:40:56;25.33;;;20.40;;
69417;SDS011;56610;48.872;2.400;2022-12-15T08:43:21;24.40;;;18.88;;
69417;SDS011;56610;48.872;2.400;2022-12-15T08:45:47;27.30;;;20.45;;
69417;SDS011;56610;48.872;2.400;2022-12-15T08:48:13;24.67;;;18.95;;
69417;SDS011;56610;48.872;2.400;2022-12-15T08:50:45;25.85;;;20.33;;
69417;SDS011;56610;48.872;2.400;2022-12-15T08:53:11;25.83;;;19.10;;
69417;SDS011;56610;48.872;2.400;2022-12-15T08:55:37;22.92;;;18.70;;
69417;SDS011;56610;48.872;2.400;2022-12-15T08:58:02;26.35;;;19.92;;
69417;SDS011;56610;48.872;2.400;2022-12-15T09:00:28;27.25;;;19.52;;
69417;SDS011;56610;48.872;2.400;2022-12-15T09:02:54;26.92;;;20.52;;
69417;SDS011;56610;48.872;2.400;2022-12-15T09:05:19;24.40;;;18.73;;
69417;SDS011;56610;48.872;2.400;2022-12-15T09:07:45;24.35;;;18.60;;
69417;SDS011;56610;48.872;2.400;2022-12-15T09:10:10;24.73;;;19.63;;
69417;SDS011;56610;48.872;2.400;2022-12-15T09:12:36;22.80;;;18.80;;
69417;SDS011;56610;48.872;2.400;2022-12-15T09:15:02;30.08;;;20.13;;
69417;SDS011;56610;48.872;2.400;2022-12-15T09:17:27;24.42;;;19.67;;
69417;SDS011;56610;48.872;2.400;2022-12-15T09:19:53;26.02;;;19.92;;
69417;SDS011;56610;48.872;2.400;2022-12-15T09:22:18;28.13;;;19.20;;
69417;SDS011;56610;48.872;2.400;2022-12-15T09:24:44;32.97;;;21.15;;
69417;SDS011;56610;48.872;2.400;2022-12-15T09:27:10;29.25;;;19.27;;
69417;SDS011;56610;48.872;2.400;2022-12-15T09:29:36;25.38;;;19.10;;
69417;SDS011;56610;48.872;2.400;2022-12-15T09:32:01;25.52;;;19.10;;
69417;SDS011;56610;48.872;2.400;2022-12-15T09:34:27;25.85;;;20.35;;
69417;SDS011;56610;48.872;2.400;2022-12-15T09:36:53;27.83;;;20.58;;
69417;SDS011;56610;48.872;2.400;2022-12-15T09:39:19;23.55;;;19.90;;
69417;SDS011;56610;48.872;2.400;2022-12-15T09:41:48;29.58;;;20.83;;
69417;SDS011;56610;48.872;2.400;2022-12-15T09:44:18;23.23;;;19.52;;
69417;SDS011;56610;48.872;2.400;2022-12-15T09:49:52;28.30;;;21.55;;
69417;SDS011;56610;48.872;2.400;2022-12-15T09:52:26;26.33;;;19.83;;
69417;SDS011;56610;48.872;2.400;2022-12-15T09:54:54;26.95;;;20.40;;
69417;SDS011;56610;48.872;2.400;2022-12-15T09:57:25;25.60;;;18.27;;
69417;SDS011;56610;48.872;2.400;2022-12-15T10:07:59;27.67;;;19.45;;
69417;SDS011;56610;48.872;2.400;2022-12-15T10:10:30;25.98;;;20.67;;
69417;SDS011;56610;48.872;2.400;2022-12-15T10:13:00;24.02;;;19.30;;
69417;SDS011;56610;48.872;2.400;2022-12-15T10:15:36;25.65;;;18.55;;
69417;SDS011;56610;48.872;2.400;2022-12-15T10:18:12;25.05;;;19.85;;
69417;SDS011;56610;48.872;2.400;2022-12-15T10:20:44;23.33;;;18.27;;
69417;SDS011;56610;48.872;2.400;2022-12-15T10:23:15;24.63;;;19.92;;
69417;SDS011;56610;48.872;2.400;2022-12-15T10:25:43;21.90;;;18.30;;
69417;SDS011;56610;48.872;2.400;2022-12-15T10:28:24;25.25;;;19.85;;
69417;SDS011;56610;48.872;2.400;2022-12-15T10:31:17;25.25;;;19.42;;
69417;SDS011;56610;48.872;2.400;2022-12-15T10:33:52;25.50;;;19.08;;
69417;SDS011;56610;48.872;2.400;2022-12-15T10:36:21;25.35;;;19.90;;
69417;SDS011;56610;48.872;2.400;2022-12-15T10:38:47;22.85;;;18.45;;
69417;SDS011;56610;48.872;2.400;2022-12-15T10:41:13;22.67;;;17.23;;
69417;SDS011;56610;48.872;2.400;2022-12-15T10:43:50;24.60;;;20.27;;
69417;SDS011;56610;48.872;2.400;2022-12-15T10:46:18;24.38;;;19.30;;
69417;SDS011;56610;48.872;2.400;2022-12-15T10:48:47;24.67;;;19.42;;
69417;SDS011;56610;48.872;2.400;2022-12-15T10:51:17;30.83;;;19.50;;
69417;SDS011;56610;48.872;2.400;2022-12-15T10:53:51;27.25;;;20.58;;
69417;SDS011;56610;48.872;2.400;2022-12-15T10:56:31;23.27;;;17.85;;
69417;SDS011;56610;48.872;2.400;2022-12-15T10:58:58;23.00;;;18.85;;
69417;SDS011;56610;48.872;2.400;2022-12-15T11:01:29;24.75;;;19.38;;
69417;SDS011;56610;48.872;2.400;2022-12-15T11:06:26;24.70;;;18.85;;
69417;SDS011;56610;48.872;2.400;2022-12-15T11:08:55;25.50;;;19.23;;
69417;SDS011;56610;48.872;2.400;2022-12-15T11:11:32;28.10;;;20.27;;
69417;SDS011;56610;48.872;2.400;2022-12-15T11:14:21;21.65;;;17.65;;
69417;SDS011;56610;48.872;2.400;2022-12-15T11:16:54;23.85;;;18.35;;
69417;SDS011;56610;48.872;2.400;2022-12-15T11:19:39;21.75;;;18.58;;
69417;SDS011;56610;48.872;2.400;2022-12-15T11:27:38;20.77;;;16.73;;
69417;SDS011;56610;48.872;2.400;2022-12-15T11:30:12;21.00;;;17.88;;
69417;SDS011;56610;48.872;2.400;2022-12-15T11:32:43;21.35;;;17.38;;
69417;SDS011;56610;48.872;2.400;2022-12-15T11:35:13;25.25;;;17.58;;
69417;SDS011;56610;48.872;2.400;2022-12-15T11:48:15;22.13;;;18.63;;
69417;SDS011;56610;48.872;2.400;2022-12-15T11:53:14;20.30;;;16.40;;
69417;SDS011;56610;48.872;2.400;2022-12-15T11:58:23;19.10;;;15.88;;
69417;SDS011;56610;48.872;2.400;2022-12-15T12:01:19;21.65;;;16.13;;
69417;SDS011;56610;48.872;2.400;2022-12-15T12:04:19;22.42;;;16.00;;
69417;SDS011;56610;48.872;2.400;2022-12-15T12:07:06;19.63;;;15.35;;
69417;SDS011;56610;48.872;2.400;2022-12-15T12:09:52;20.88;;;15.77;;
69417;SDS011;56610;48.872;2.400;2022-12-15T12:12:28;19.50;;;16.48;;
69417;SDS011;56610;48.872;2.400;2022-12-15T12:17:47;20.45;;;15.90;;
69417;SDS011;56610;48.872;2.400;2022-12-15T12:20:21;23.95;;;16.25;;
69417;SDS011;56610;48.872;2.400;2022-12-15T12:25:17;19.95;;;16.00;;
69417;SDS011;56610;48.872;2.400;2022-12-15T12:27:48;21.20;;;16.17;;
69417;SDS011;56610;48.872;2.400;2022-12-15T12:30:20;24.00;;;16.52;;
69417;SDS011;56610;48.872;2.400;2022-12-15T12:35:50;19.50;;;15.25;;
69417;SDS011;56610;48.872;2.400;2022-12-15T12:38:28;17.95;;;15.75;;
69417;SDS011;56610;48.872;2.400;2022-12-15T12:43:31;20.75;;;16.30;;
69417;SDS011;56610;48.872;2.400;2022-12-15T12:46:08;22.17;;;15.95;;
69417;SDS011;56610;48.872;2.400;2022-12-15T12:48:40;19.27;;;15.93;;
69417;SDS011;56610;48.872;2.400;2022-12-15T12:51:24;20.05;;;16.35;;
69417;SDS011;56610;48.872;2.400;2022-12-15T12:53:55;20.48;;;15.75;;
69417;SDS011;56610;48.872;2.400;2022-12-15T12:56:28;20.20;;;16.73;;
69417;SDS011;56610;48.872;2.400;2022-12-15T12:59:01;18.67;;;14.88;;
69417;SDS011;56610;48.872;2.400;2022-12-15T13:01:32;20.35;;;16.48;;
69417;SDS011;56610;48.872;2.400;2022-12-15T13:09:00;19.73;;;15.85;;
69417;SDS011;56610;48.872;2.400;2022-12-15T13:14:11;20.10;;;15.80;;
69417;SDS011;56610;48.872;2.400;2022-12-15T13:17:25;22.45;;;17.42;;
69417;SDS011;56610;48.872;2.400;2022-12-15T13:20:33;25.35;;;16.98;;
69417;SDS011;56610;48.872;2.400;2022-12-15T13:22:41;22.00;;;16.45;;
69417;SDS011;56610;48.872;2.400;2022-12-15T13:27:51;18.83;;;15.65;;
69417;SDS011;56610;48.872;2.400;2022-12-15T13:30:20;21.92;;;16.70;;
69417;SDS011;56610;48.872;2.400;2022-12-15T13:32:46;23.38;;;17.48;;
69417;SDS011;56610;48.872;2.400;2022-12-15T13:35:29;20.67;;;16.08;;
69417;SDS011;56610;48.872;2.400;2022-12-15T13:38:01;18.17;;;14.18;;
69417;SDS011;56610;48.872;2.400;2022-12-15T13:45:50;19.67;;;16.17;;
69417;SDS011;56610;48.872;2.400;2022-12-15T13:48:31;16.80;;;13.77;;
69417;SDS011;56610;48.872;2.400;2022-12-15T13:53:46;20.88;;;14.60;;
69417;SDS011;56610;48.872;2.400;2022-12-15T13:56:22;17.95;;;13.60;;
69417;SDS011;56610;48.872;2.400;2022-12-15T13:58:52;17.85;;;14.00;;
69417;SDS011;56610;48.872;2.400;2022-12-15T14:01:25;17.33;;;13.80;;
69417;SDS011;56610;48.872;2.400;2022-12-15T14:04:11;16.40;;;13.90;;
69417;SDS011;56610;48.872;2.400;2022-12-15T14:06:44;19.42;;;13.98;;
69417;SDS011;56610;48.872;2.400;2022-12-15T14:09:34;15.82;;;13.70;;
69417;SDS011;56610;48.872;2.400;2022-12-15T14:12:02;17.98;;;13.70;;
69417;SDS011;56610;48.872;2.400;2022-12-15T14:16:58;18.52;;;12.30;;
69417;SDS011;56610;48.872;2.400;2022-12-15T14:19:26;15.63;;;13.10;;
69417;SDS011;56610;48.872;2.400;2022-12-15T14:22:00;17.55;;;13.68;;
69417;SDS011;56610;48.872;2.400;2022-12-15T14:24:30;15.55;;;13.35;;
69417;SDS011;56610;48.872;2.400;2022-12-15T14:26:57;19.40;;;13.88;;
69417;SDS011;56610;48.872;2.400;2022-12-15T14:29:23;15.93;;;12.93;;
69417;SDS011;56610;48.872;2.400;2022-12-15T14:31:56;15.98;;;13.07;;
69417;SDS011;56610;48.872;2.400;2022-12-15T14:36:57;16.80;;;13.38;;
69417;SDS011;56610;48.872;2.400;2022-12-15T14:42:04;14.80;;;12.68;;
69417;SDS011;56610;48.872;2.400;2022-12-15T14:44:32;17.25;;;12.25;;
69417;SDS011;56610;48.872;2.400;2022-12-15T14:47:02;14.90;;;12.38;;
69417;SDS011;56610;48.872;2.400;2022-12-15T14:49:39;16.00;;;12.02;;
69417;SDS011;56610;48.872;2.400;2022-12-15T14:54:54;14.57;;;11.85;;
69417;SDS011;56610;48.872;2.400;2022-12-15T14:59:49;14.90;;;11.23;;
69417;SDS011;56610;48.872;2.400;2022-12-15T15:02:35;14.27;;;11.02;;
69417;SDS011;56610;48.872;2.400;2022-12-15T15:05:02;12.40;;;10.68;;
69417;SDS011;56610;48.872;2.400;2022-12-15T15:07:48;14.48;;;10.57;;
69417;SDS011;56610;48.872;2.400;2022-12-15T15:10:20;14.30;;;11.50;;
69417;SDS011;56610;48.872;2.400;2022-12-15T15:12:51;12.68;;;10.05;;
69417;SDS011;56610;48.872;2.400;2022-12-15T15:15:18;13.73;;;10.55;;
69417;SDS011;56610;48.872;2.400;2022-12-15T15:17:52;15.27;;;9.95;;
69417;SDS011;56610;48.872;2.400;2022-12-15T15:20:21;13.52;;;9.68;;
69417;SDS011;56610;48.872;2.400;2022-12-15T15:28:01;11.18;;;8.35;;
69417;SDS011;56610;48.872;2.400;2022-12-15T15:30:59;11.65;;;8.35;;
69417;SDS011;56610;48.872;2.400;2022-12-15T15:33:32;10.30;;;7.60;;
69417;SDS011;56610;48.872;2.400;2022-12-15T15:36:01;8.98;;;7.25;;
69417;SDS011;56610;48.872;2.400;2022-12-15T15:38:39;11.07;;;8.32;;
69417;SDS011;56610;48.872;2.400;2022-12-15T15:41:16;9.38;;;7.25;;
69417;SDS011;56610;48.872;2.400;2022-12-15T15:43:46;12.02;;;7.45;;
69417;SDS011;56610;48.872;2.400;2022-12-15T15:46:16;9.75;;;7.28;;
69417;SDS011;56610;48.872;2.400;2022-12-15T15:48:45;8.02;;;6.80;;
69417;SDS011;56610;48.872;2.400;2022-12-15T15:51:13;11.38;;;7.15;;
69417;SDS011;56610;48.872;2.400;2022-12-15T15:53:38;9.65;;;7.68;;
69417;SDS011;56610;48.872;2.400;2022-12-15T15:56:05;9.02;;;6.97;;
69417;SDS011;56610;48.872;2.400;2022-12-15T15:58:35;10.07;;;6.97;;
69417;SDS011;56610;48.872;2.400;2022-12-15T16:01:01;11.23;;;8.05;;
69417;SDS011;56610;48.872;2.400;2022-12-15T16:03:27;10.35;;;7.05;;
69417;SDS011;56610;48.872;2.400;2022-12-15T16:05:52;10.40;;;7.45;;
69417;SDS011;56610;48.872;2.400;2022-12-15T16:08:20;11.75;;;7.95;;
69417;SDS011;56610;48.872;2.400;2022-12-15T16:10:51;9.45;;;7.35;;
69417;SDS011;56610;48.872;2.400;2022-12-15T16:13:17;10.25;;;7.70;;
69417;SDS011;56610;48.872;2.400;2022-12-15T16:15:44;9.82;;;8.40;;
69417;SDS011;56610;48.872;2.400;2022-12-15T16:18:10;12.43;;;7.68;;
69417;SDS011;56610;48.872;2.400;2022-12-15T16:20:36;9.52;;;8.07;;
69417;SDS011;56610;48.872;2.400;2022-12-15T16:23:04;9.77;;;8.32;;
69417;SDS011;56610;48.872;2.400;2022-12-15T16:25:38;11.30;;;8.40;;
69417;SDS011;56610;48.872;2.400;2022-12-15T16:28:13;10.07;;;7.82;;
69417;SDS011;56610;48.872;2.400;2022-12-15T16:30:40;12.13;;;9.00;;
69417;SDS011;56610;48.872;2.400;2022-12-15T16:33:07;12.20;;;8.60;;
69417;SDS011;56610;48.872;2.400;2022-12-15T16:35:32;11.85;;;9.25;;
69417;SDS011;56610;48.872;2.400;2022-12-15T16:37:58;11.68;;;8.75;;
69417;SDS011;56610;48.872;2.400;2022-12-15T16:40:24;10.57;;;8.43;;
69417;SDS011;56610;48.872;2.400;2022-12-15T16:42:52;11.15;;;8.55;;
69417;SDS011;56610;48.872;2.400;2022-12-15T16:45:23;12.15;;;8.38;;